createdAt,value
2018-07-06T00:02:16.492Z,19.19
2018-07-06T00:05:03.182Z,18.98
2018-07-06T00:07:50.052Z,18.80
2018-07-06T00:10:36.809Z,18.75
2018-07-06T00:13:23.507Z,18.80
2018-07-06T00:16:10.480Z,19.01
2018-07-06T00:18:57.149Z,19.16
2018-07-06T00:21:43.909Z,19.30
2018-07-06T00:24:30.605Z,19.34
2018-07-06T00:27:17.637Z,19.46
2018-07-06T00:30:04.674Z,19.46
2018-07-06T00:32:51.461Z,19.41
2018-07-06T00:35:38.156Z,19.42
2018-07-06T00:38:24.972Z,19.45
2018-07-06T00:41:12.085Z,19.52
2018-07-06T00:43:59.263Z,19.49
2018-07-06T00:46:47.091Z,19.53
2018-07-06T00:49:33.982Z,19.59
2018-07-06T00:52:20.971Z,19.62
2018-07-06T00:55:07.914Z,19.60
2018-07-06T00:57:54.818Z,19.57
2018-07-06T01:00:41.931Z,19.43
2018-07-06T01:03:28.747Z,19.30
2018-07-06T01:06:15.521Z,19.21
2018-07-06T01:09:02.405Z,19.23
2018-07-06T01:11:49.228Z,19.29
2018-07-06T01:14:36.005Z,19.19
2018-07-06T01:17:22.998Z,19.19
2018-07-06T01:20:09.884Z,19.05
2018-07-06T01:22:56.776Z,18.90
2018-07-06T01:25:43.614Z,18.89
2018-07-06T01:28:30.582Z,19.05
2018-07-06T01:31:17.624Z,19.05
2018-07-06T01:34:05.012Z,19.06
2018-07-06T01:36:52.126Z,19.14
2018-07-06T01:39:39.164Z,19.14
2018-07-06T01:42:26.334Z,19.01
2018-07-06T01:45:13.180Z,18.83
2018-07-06T01:47:59.980Z,18.77
2018-07-06T01:50:46.828Z,18.77
2018-07-06T01:53:33.665Z,18.81
2018-07-06T01:56:20.412Z,18.89
2018-07-06T01:59:07.192Z,18.89
2018-07-06T02:01:54.089Z,18.92
2018-07-06T02:04:40.775Z,19.02
2018-07-06T02:07:27.925Z,19.10
2018-07-06T02:10:14.901Z,19.16
2018-07-06T02:13:01.945Z,19.32
2018-07-06T02:15:48.611Z,19.34
2018-07-06T02:18:35.489Z,19.41
2018-07-06T02:21:22.327Z,19.44
2018-07-06T02:24:09.334Z,19.45
2018-07-06T02:26:56.045Z,19.36
2018-07-06T02:29:43.133Z,19.26
2018-07-06T02:32:30.357Z,19.17
2018-07-06T02:35:17.331Z,19.16
2018-07-06T02:38:04.283Z,19.08
2018-07-06T02:40:51.485Z,19.26
2018-07-06T02:43:38.708Z,19.38
2018-07-06T02:46:26.118Z,19.40
2018-07-06T02:49:13.228Z,19.36
2018-07-06T02:52:00.339Z,19.25
2018-07-06T02:54:47.453Z,19.15
2018-07-06T02:57:34.562Z,19.20
2018-07-06T03:00:21.609Z,19.20
2018-07-06T03:03:08.683Z,19.18
2018-07-06T03:05:55.999Z,19.08
2018-07-06T03:08:43.094Z,19.05
2018-07-06T03:11:30.121Z,19.04
2018-07-06T03:14:17.434Z,19.03
2018-07-06T03:17:04.650Z,19.02
2018-07-06T03:19:51.831Z,19.02
2018-07-06T03:22:38.901Z,19.08
2018-07-06T03:25:25.879Z,19.12
2018-07-06T03:28:12.995Z,19.20
2018-07-06T03:31:00.408Z,19.29
2018-07-06T03:33:47.724Z,19.41
2018-07-06T03:36:34.835Z,19.62
2018-07-06T03:39:21.876Z,19.68
2018-07-06T03:42:09.057Z,19.91
2018-07-06T03:44:56.271Z,20.18
2018-07-06T03:47:43.073Z,20.38
2018-07-06T03:50:30.696Z,20.47
2018-07-06T03:53:17.736Z,20.48
2018-07-06T03:56:04.862Z,20.58
2018-07-06T03:58:51.641Z,20.70
2018-07-06T04:01:38.531Z,20.81
2018-07-06T04:04:25.278Z,20.92
2018-07-06T04:07:12.151Z,21.04
2018-07-06T04:09:58.901Z,21.13
2018-07-06T04:12:45.637Z,21.25
2018-07-06T04:15:32.768Z,21.25
2018-07-06T04:18:19.818Z,21.20
2018-07-06T04:21:06.581Z,21.18
2018-07-06T04:23:53.527Z,21.16
2018-07-06T04:26:40.287Z,21.12
2018-07-06T04:29:27.111Z,21.13
2018-07-06T04:32:14.699Z,21.11
2018-07-06T04:35:01.653Z,21.10
2018-07-06T04:37:48.669Z,21.11
2018-07-06T04:40:35.834Z,21.18
2018-07-06T04:43:22.842Z,21.38
2018-07-06T04:46:10.058Z,21.62
2018-07-06T04:48:57.282Z,21.90
2018-07-06T04:51:44.275Z,22.29
2018-07-06T04:54:31.213Z,22.58
2018-07-06T04:57:19.115Z,22.66
2018-07-06T05:00:06.123Z,22.64
2018-07-06T05:02:53.440Z,22.43
2018-07-06T05:05:40.680Z,22.25
2018-07-06T05:08:27.366Z,22.07
2018-07-06T05:11:14.217Z,21.93
2018-07-06T05:14:01.167Z,21.84
2018-07-06T05:16:48.085Z,21.79
2018-07-06T05:19:35.290Z,21.77
2018-07-06T05:22:22.296Z,21.67
2018-07-06T05:25:09.081Z,21.59
2018-07-06T05:27:55.817Z,21.58
2018-07-06T05:30:42.737Z,21.65
2018-07-06T05:33:30.445Z,21.76
2018-07-06T05:36:17.235Z,21.90
2018-07-06T05:39:05.321Z,22.06
2018-07-06T05:41:52.279Z,22.09
2018-07-06T05:44:39.109Z,22.24
2018-07-06T05:47:25.990Z,22.36
2018-07-06T05:50:12.951Z,22.52
2018-07-06T05:52:59.881Z,22.74
2018-07-06T05:55:46.641Z,23.13
2018-07-06T05:58:33.516Z,23.86
2018-07-06T06:01:20.965Z,25.24
2018-07-06T06:04:08.407Z,27.29
2018-07-06T06:06:55.778Z,29.34
2018-07-06T06:09:32.334Z,31.10
2018-07-06T06:12:02.851Z,32.08
2018-07-06T06:14:33.738Z,33.35
2018-07-06T06:17:04.494Z,34.65
2018-07-06T06:19:35.273Z,36.00
2018-07-06T06:22:06.261Z,36.73
2018-07-06T06:24:37.081Z,36.64
2018-07-06T06:27:07.876Z,37.19
2018-07-06T06:29:38.635Z,37.57
2018-07-06T06:32:09.796Z,37.75
2018-07-06T06:34:41.030Z,37.48
2018-07-06T06:37:11.485Z,37.87
2018-07-06T06:39:42.281Z,38.55
2018-07-06T06:42:12.761Z,39.41
2018-07-06T06:44:43.060Z,39.87
2018-07-06T06:47:13.729Z,39.99
2018-07-06T06:49:44.348Z,39.96
2018-07-06T06:52:15.533Z,39.60
2018-07-06T06:54:46.065Z,39.38
2018-07-06T06:57:16.606Z,39.55
2018-07-06T06:59:47.101Z,39.61
2018-07-06T07:02:17.714Z,39.63
2018-07-06T07:04:48.261Z,39.81
2018-07-06T07:07:18.935Z,40.47
2018-07-06T07:09:49.797Z,40.54
2018-07-06T07:12:20.265Z,40.50
2018-07-06T07:14:50.529Z,40.83
2018-07-06T07:17:21.111Z,41.24
2018-07-06T07:19:51.412Z,41.13
2018-07-06T07:22:21.994Z,40.87
2018-07-06T07:24:52.458Z,41.66
2018-07-06T07:27:23.325Z,41.83
2018-07-06T07:29:53.881Z,41.41
2018-07-06T07:32:24.497Z,41.24
2018-07-06T07:34:55.101Z,41.50
2018-07-06T07:37:25.678Z,41.86
2018-07-06T07:39:56.289Z,41.65
2018-07-06T07:42:26.975Z,41.91
2018-07-06T07:44:57.490Z,41.67
2018-07-06T07:47:28.118Z,42.17
2018-07-06T07:49:58.709Z,42.87
2018-07-06T07:53:41.605Z,43.79
2018-07-06T07:56:11.887Z,44.90
2018-07-06T07:58:42.399Z,44.25
2018-07-06T08:01:14.780Z,42.73
2018-07-06T08:03:45.328Z,42.28
2018-07-06T08:06:15.863Z,41.59
2018-07-06T08:08:46.389Z,41.31
2018-07-06T08:11:16.849Z,41.64
2018-07-06T08:13:47.355Z,42.03
2018-07-06T08:16:17.827Z,41.03
2018-07-06T08:18:48.314Z,40.33
2018-07-06T08:21:18.806Z,39.14
2018-07-06T08:23:49.290Z,38.58
2018-07-06T08:26:19.858Z,38.76
2018-07-06T08:28:50.522Z,38.48
2018-07-06T08:31:20.968Z,38.76
2018-07-06T08:34:02.403Z,39.37
2018-07-06T08:37:47.677Z,39.90
2018-07-06T08:40:18.502Z,40.61
2018-07-06T08:42:50.181Z,40.98
2018-07-06T08:45:20.705Z,41.49
2018-07-06T08:47:51.037Z,42.07
2018-07-06T08:50:21.517Z,42.18
2018-07-06T08:52:53.112Z,41.35
2018-07-06T08:55:23.760Z,41.07
2018-07-06T08:57:55.399Z,40.42
2018-07-06T09:00:25.912Z,39.59
2018-07-06T09:02:56.154Z,38.15
2018-07-06T09:05:26.965Z,36.80
2018-07-06T09:07:57.774Z,36.07
2018-07-06T09:10:28.549Z,35.38
2018-07-06T09:12:59.300Z,34.26
2018-07-06T09:15:30.322Z,33.45
2018-07-06T09:18:01.068Z,32.57
2018-07-06T09:20:31.829Z,32.03
2018-07-06T09:23:02.561Z,31.66
2018-07-06T09:25:33.652Z,31.81
2018-07-06T09:28:04.357Z,32.55
2018-07-06T09:30:35.209Z,32.85
2018-07-06T09:33:05.738Z,32.79
2018-07-06T09:35:36.513Z,32.53
2018-07-06T09:38:07.288Z,32.54
2018-07-06T09:40:38.101Z,32.51
2018-07-06T09:43:08.883Z,32.19
2018-07-06T09:45:39.668Z,31.93
2018-07-06T09:48:10.425Z,31.76
2018-07-06T09:50:41.212Z,31.70
2018-07-06T09:53:11.965Z,31.90
2018-07-06T09:55:42.741Z,32.45
2018-07-06T09:58:13.496Z,32.48
2018-07-06T10:00:49.305Z,32.21
2018-07-06T10:03:20.037Z,31.64
2018-07-06T10:05:50.837Z,31.23
2018-07-06T10:08:21.650Z,30.70
2018-07-06T10:10:52.473Z,30.34
2018-07-06T10:13:23.436Z,30.04
2018-07-06T10:15:54.222Z,30.18
2018-07-06T10:18:24.982Z,30.58
2018-07-06T10:20:55.778Z,31.21
2018-07-06T10:23:26.863Z,31.68
2018-07-06T10:25:57.670Z,31.81
2018-07-06T10:30:51.014Z,31.79
2018-07-06T10:33:21.627Z,31.99
2018-07-06T10:35:53.109Z,32.23
2018-07-06T10:38:24.348Z,32.07
2018-07-06T10:40:55.135Z,32.07
2018-07-06T10:43:25.690Z,31.92
2018-07-06T10:45:56.458Z,31.77
2018-07-06T10:48:27.229Z,31.69
2018-07-06T10:50:58.039Z,31.71
2018-07-06T10:53:28.940Z,31.78
2018-07-06T10:56:00.042Z,31.45
2018-07-06T10:58:30.881Z,30.92
2018-07-06T11:01:01.853Z,30.73
2018-07-06T11:03:32.645Z,30.46
2018-07-06T11:06:03.403Z,30.41
2018-07-06T11:08:34.206Z,30.41
2018-07-06T11:11:04.962Z,30.36
2018-07-06T11:13:35.921Z,30.42
2018-07-06T11:16:06.797Z,30.58
2018-07-06T11:18:37.541Z,30.35
2018-07-06T11:21:09.980Z,30.22
2018-07-06T11:23:41.170Z,30.33
2018-07-06T11:26:13.529Z,30.47
2018-07-06T11:28:46.861Z,30.46
2018-07-06T11:31:18.007Z,30.40
2018-07-06T11:33:49.278Z,30.37
2018-07-06T11:36:20.393Z,30.37
2018-07-06T11:38:51.766Z,30.31
2018-07-06T11:41:22.721Z,29.88
2018-07-06T11:43:53.882Z,29.72
2018-07-06T11:46:25.026Z,29.79
2018-07-06T11:48:55.838Z,29.92
2018-07-06T11:51:26.947Z,30.09
2018-07-06T11:53:57.917Z,30.09
2018-07-06T11:56:29.082Z,29.82
2018-07-06T11:59:01.074Z,29.41
2018-07-06T12:01:32.238Z,29.02
2018-07-06T12:04:04.561Z,28.76
2018-07-06T12:06:35.699Z,28.60
2018-07-06T12:09:06.947Z,28.67
2018-07-06T12:11:37.784Z,28.77
2018-07-06T12:14:08.628Z,28.89
2018-07-06T12:16:39.434Z,28.97
2018-07-06T12:19:10.282Z,29.05
2018-07-06T12:21:41.013Z,29.16
2018-07-06T12:24:11.813Z,29.22
2018-07-06T12:26:42.586Z,29.09
2018-07-06T12:29:13.467Z,28.81
2018-07-06T12:31:44.389Z,28.75
2018-07-06T12:34:14.940Z,28.71
2018-07-06T12:36:45.702Z,28.58
2018-07-06T12:39:16.595Z,28.61
2018-07-06T12:41:47.371Z,28.65
2018-07-06T12:44:18.137Z,28.65
2018-07-06T12:46:48.861Z,28.56
2018-07-06T12:49:20.037Z,28.40
2018-07-06T12:51:50.795Z,28.04
2018-07-06T12:54:21.625Z,27.90
2018-07-06T12:56:52.365Z,28.02
2018-07-06T12:59:23.196Z,28.09
2018-07-06T13:01:54.001Z,28.08
2018-07-06T13:04:24.805Z,27.88
2018-07-06T13:06:55.577Z,27.64
2018-07-06T13:09:26.383Z,27.48
2018-07-06T13:11:57.157Z,27.34
2018-07-06T13:14:27.962Z,27.37
2018-07-06T13:16:59.006Z,27.55
2018-07-06T13:19:29.765Z,27.72
2018-07-06T13:22:00.511Z,27.85
2018-07-06T13:24:31.293Z,27.95
2018-07-06T13:27:02.061Z,28.01
2018-07-06T13:29:32.861Z,28.14
2018-07-06T13:32:03.666Z,28.12
2018-07-06T13:34:34.453Z,28.10
2018-07-06T13:37:05.312Z,28.15
2018-07-06T13:39:36.278Z,28.25
2018-07-06T13:42:07.027Z,28.27
2018-07-06T13:44:37.830Z,28.19
2018-07-06T13:47:08.569Z,28.01
2018-07-06T13:49:39.361Z,28.07
2018-07-06T13:52:10.188Z,28.22
2018-07-06T13:54:40.977Z,28.29
2018-07-06T13:57:11.729Z,28.33
2018-07-06T13:59:42.525Z,28.52
2018-07-06T14:02:13.274Z,28.80
2018-07-06T14:04:44.065Z,29.09
2018-07-06T14:07:14.904Z,29.17
2018-07-06T14:09:45.725Z,29.20
2018-07-06T14:12:16.545Z,29.08
2018-07-06T14:14:47.325Z,28.68
2018-07-06T14:17:18.076Z,28.43
2018-07-06T14:19:48.894Z,28.26
2018-07-06T14:22:19.649Z,28.18
2018-07-06T14:24:50.430Z,28.10
2018-07-06T14:27:21.161Z,28.08
2018-07-06T14:29:51.981Z,28.21
2018-07-06T14:32:22.760Z,28.42
2018-07-06T14:34:53.683Z,28.55
2018-07-06T14:37:24.635Z,28.58
2018-07-06T14:39:55.567Z,28.52
2018-07-06T14:42:26.410Z,28.37
2018-07-06T14:44:56.953Z,28.22
2018-07-06T14:47:27.701Z,28.18
2018-07-06T14:49:58.505Z,28.22
2018-07-06T14:52:29.335Z,28.22
2018-07-06T14:55:00.123Z,28.18
2018-07-06T14:57:30.895Z,28.06
2018-07-06T15:00:01.699Z,27.82
2018-07-06T15:02:32.478Z,27.66
2018-07-06T15:05:03.314Z,27.56
2018-07-06T15:07:34.309Z,27.46
2018-07-06T15:10:05.129Z,27.44
2018-07-06T15:12:35.885Z,27.34
2018-07-06T15:15:07.054Z,27.13
2018-07-06T15:17:38.218Z,27.00
2018-07-06T15:20:09.009Z,26.89
2018-07-06T15:22:39.837Z,26.93
2018-07-06T15:25:10.666Z,27.13
2018-07-06T15:27:41.598Z,27.22
2018-07-06T15:30:12.412Z,27.17
2018-07-06T15:32:43.179Z,27.08
2018-07-06T15:35:14.293Z,27.00
2018-07-06T15:37:45.071Z,26.87
2018-07-06T15:40:16.036Z,26.81
2018-07-06T15:42:46.854Z,26.76
2018-07-06T15:45:17.685Z,26.67
2018-07-06T15:47:48.474Z,26.58
2018-07-06T15:50:19.242Z,26.50
2018-07-06T15:52:50.412Z,26.45
2018-07-06T15:55:21.214Z,26.41
2018-07-06T15:57:52.011Z,26.41
2018-07-06T16:00:22.826Z,26.46
2018-07-06T16:02:54.214Z,26.45
2018-07-06T16:05:25.023Z,26.35
2018-07-06T16:07:55.875Z,26.29
2018-07-06T16:10:26.670Z,26.22
2018-07-06T16:12:57.441Z,26.11
2018-07-06T16:15:28.280Z,26.02
2018-07-06T16:17:59.053Z,25.85
2018-07-06T16:20:29.846Z,25.73
2018-07-06T16:23:00.609Z,25.65
2018-07-06T16:25:31.393Z,25.56
2018-07-06T16:28:02.162Z,25.50
2018-07-06T16:30:32.984Z,25.41
2018-07-06T16:33:03.538Z,25.31
2018-07-06T16:35:34.361Z,25.24
2018-07-06T16:38:05.121Z,25.14
2018-07-06T16:40:36.047Z,25.08
2018-07-06T16:43:06.904Z,25.01
2018-07-06T16:45:37.816Z,24.90
2018-07-06T16:48:08.912Z,24.78
2018-07-06T16:50:39.883Z,24.69
2018-07-06T16:53:11.083Z,24.61
2018-07-06T16:55:42.264Z,24.54
2018-07-06T16:58:13.310Z,24.45
2018-07-06T17:00:44.492Z,24.35
2018-07-06T17:03:15.569Z,24.26
2018-07-06T17:05:45.779Z,24.18
2018-07-06T17:08:16.558Z,24.10
2018-07-06T17:10:46.827Z,24.01
2018-07-06T17:13:17.033Z,23.94
2018-07-06T17:15:47.246Z,23.90
2018-07-06T17:18:18.053Z,23.84
2018-07-06T17:20:48.874Z,23.73
2018-07-06T17:23:19.631Z,23.67
2018-07-06T17:25:50.434Z,23.57
2018-07-06T17:28:21.268Z,23.44
2018-07-06T17:30:52.077Z,23.38
2018-07-06T17:33:22.942Z,23.32
2018-07-06T17:35:53.726Z,23.24
2018-07-06T17:38:24.483Z,23.17
2018-07-06T17:40:55.426Z,23.09
2018-07-06T17:43:26.292Z,23.01
2018-07-06T17:45:57.107Z,22.95
2018-07-06T17:48:27.885Z,22.90
2018-07-06T17:50:58.745Z,22.84
2018-07-06T17:53:29.517Z,22.79
2018-07-06T17:56:00.317Z,22.75
2018-07-06T17:58:31.078Z,22.70
2018-07-06T18:01:01.855Z,22.60
2018-07-06T18:03:32.662Z,22.53
2018-07-06T18:06:03.463Z,22.47
2018-07-06T18:08:34.241Z,22.43
2018-07-06T18:11:05.046Z,22.38
2018-07-06T18:13:35.869Z,22.29
2018-07-06T18:16:06.731Z,22.20
2018-07-06T18:18:37.188Z,22.03
2018-07-06T18:21:07.409Z,21.94
2018-07-06T18:23:38.191Z,21.86
2018-07-06T18:26:08.983Z,21.67
2018-07-06T18:28:39.770Z,21.55
2018-07-06T18:31:10.007Z,21.51
2018-07-06T18:33:40.254Z,21.40
2018-07-06T18:36:10.541Z,21.25
2018-07-06T18:38:40.761Z,21.24
2018-07-06T18:41:11.101Z,21.16
2018-07-06T18:43:41.336Z,21.04
2018-07-06T18:46:11.542Z,20.95
2018-07-06T18:48:41.830Z,20.82
2018-07-06T18:51:12.038Z,20.67
2018-07-06T18:53:42.273Z,20.49
2018-07-06T18:56:12.894Z,20.45
2018-07-06T18:58:43.122Z,20.34
2018-07-06T19:01:13.302Z,20.30
2018-07-06T19:03:43.486Z,20.19
2018-07-06T19:06:13.723Z,20.01
2018-07-06T19:08:43.913Z,19.79
2018-07-06T19:11:14.122Z,19.70
2018-07-06T19:13:44.292Z,19.51
2018-07-06T19:16:14.885Z,19.34
2018-07-06T19:18:45.361Z,19.19
2018-07-06T19:21:15.564Z,19.09
2018-07-06T19:23:45.751Z,18.97
2018-07-06T19:26:16.015Z,18.91
2018-07-06T19:28:46.173Z,18.80
2018-07-06T19:31:16.702Z,18.77
2018-07-06T19:33:47.235Z,18.70
2018-07-06T19:36:17.478Z,18.62
2018-07-06T19:38:47.860Z,18.55
2018-07-06T19:41:18.178Z,18.48
2018-07-06T19:43:48.353Z,18.40
2018-07-06T19:46:18.604Z,18.36
2018-07-06T19:48:48.789Z,18.30
2018-07-06T19:51:19.009Z,18.22
2018-07-06T19:53:49.245Z,18.25
2018-07-06T19:56:19.598Z,18.20
2018-07-06T19:58:49.812Z,18.15
2018-07-06T20:01:20.027Z,18.15
2018-07-06T20:03:50.265Z,18.20
2018-07-06T20:06:20.521Z,18.22
2018-07-06T20:08:50.733Z,18.27
2018-07-06T20:11:20.915Z,18.33
2018-07-06T20:13:51.117Z,18.42
2018-07-06T20:16:21.354Z,18.45
2018-07-06T20:18:51.568Z,18.39
2018-07-06T20:21:21.758Z,18.29
2018-07-06T20:23:52.001Z,18.17
2018-07-06T20:26:22.184Z,17.99
2018-07-06T20:28:52.439Z,17.82
2018-07-06T20:31:22.638Z,17.75
2018-07-06T20:33:52.905Z,17.75
2018-07-06T20:36:23.107Z,17.73
2018-07-06T20:38:53.063Z,17.73
2018-07-06T20:41:23.400Z,17.74
2018-07-06T20:43:53.626Z,17.68
2018-07-06T20:46:23.822Z,17.68
2018-07-06T20:48:54.039Z,17.66
2018-07-06T20:51:24.253Z,17.64
2018-07-06T20:53:54.536Z,17.51
2018-07-06T20:56:24.946Z,17.39
2018-07-06T20:58:55.306Z,17.24
2018-07-06T21:01:25.465Z,17.10
2018-07-06T21:03:55.703Z,17.07
2018-07-06T21:06:25.918Z,16.96
2018-07-06T21:08:56.105Z,16.89
2018-07-06T21:11:26.302Z,16.79
2018-07-06T21:13:56.595Z,16.67
2018-07-06T21:16:26.826Z,16.58
2018-07-06T21:18:57.010Z,16.49
2018-07-06T21:21:27.206Z,16.48
2018-07-06T21:23:57.279Z,16.42
2018-07-06T21:26:27.733Z,16.35
2018-07-06T21:28:57.925Z,16.26
2018-07-06T21:31:27.894Z,16.22
2018-07-06T21:33:58.098Z,16.13
2018-07-06T21:36:28.374Z,16.10
2018-07-06T21:38:58.656Z,16.11
2018-07-06T21:41:28.998Z,16.08
2018-07-06T21:43:59.206Z,16.05
2018-07-06T21:46:29.426Z,15.99
2018-07-06T21:48:59.637Z,15.97
2018-07-06T21:51:30.050Z,16.06
2018-07-06T21:54:00.246Z,16.33
2018-07-06T21:56:30.465Z,16.18
2018-07-06T21:59:00.663Z,16.00
2018-07-06T22:01:30.862Z,15.84
2018-07-06T22:04:00.772Z,15.72
2018-07-06T22:06:31.102Z,15.65
2018-07-06T22:09:01.280Z,15.61
2018-07-06T22:11:31.250Z,15.53
2018-07-06T22:14:01.452Z,15.46
2018-07-06T22:16:31.694Z,15.44
2018-07-06T22:19:01.897Z,15.38
2018-07-06T22:21:32.125Z,15.32
2018-07-06T22:24:02.342Z,15.27
2018-07-06T22:26:32.558Z,15.23
2018-07-06T22:29:02.759Z,15.26
2018-07-06T22:31:33.033Z,15.27
2018-07-06T22:34:03.233Z,15.23
2018-07-06T22:36:33.473Z,15.17
2018-07-06T22:39:03.892Z,15.16
2018-07-06T22:41:34.261Z,15.08
2018-07-06T22:44:04.425Z,15.04
2018-07-06T22:46:34.690Z,14.99
2018-07-06T22:49:04.870Z,14.95
2018-07-06T22:51:35.104Z,14.90
2018-07-06T22:54:05.394Z,14.89
2018-07-06T22:56:35.957Z,14.92
2018-07-06T22:59:06.309Z,14.89
2018-07-06T23:01:36.525Z,14.84
2018-07-06T23:04:06.865Z,14.78
2018-07-06T23:06:37.258Z,14.74
2018-07-06T23:09:08.383Z,14.70
2018-07-06T23:11:38.617Z,14.68
2018-07-06T23:14:08.855Z,14.67
2018-07-06T23:16:39.062Z,14.68
2018-07-06T23:19:09.268Z,14.69
2018-07-06T23:21:39.557Z,14.70
2018-07-06T23:24:09.849Z,14.68
2018-07-06T23:26:40.071Z,14.65
2018-07-06T23:29:10.533Z,14.64
2018-07-06T23:31:40.774Z,14.62
2018-07-06T23:34:10.991Z,14.59
2018-07-06T23:36:41.158Z,14.59
2018-07-06T23:39:11.346Z,14.62
2018-07-06T23:41:41.674Z,14.64
2018-07-06T23:44:11.890Z,14.65
2018-07-06T23:46:42.163Z,14.71
2018-07-06T23:49:12.362Z,14.77
2018-07-06T23:51:42.680Z,14.85
2018-07-06T23:54:12.933Z,14.94
2018-07-06T23:56:43.205Z,15.06
2018-07-06T23:59:13.441Z,15.23
